Flight Track Log - Related Links

Times and Time Zones

All times are in EDT time to prevent confusion due to time zone crossing. See the ASQ5873 flight status page for this flight to view local times or setup timezone preferences in your user account.

Time Position Orientation Groundspeed Altitude Reporting Facility
EDT Latitude Longitude Course Direction KTS MPH feet Rate Location/Type
Sun 06:58:39 AM 44.4667 -88.0500 176° South 222 255 5,100  Level KMKE
Sun 06:58:57 AM 44.4333 -88.0500 180° South 237 273 5,800 2,538 Climbing KMKE
Sun 06:59:57 AM 44.3667 -88.0500 180° South 264 304 8,400 2,430 Climbing KMKE
Sun 07:00:00 AM 44.3079 -88.1749 175° South  Level FlightAware
Sun 07:00:58 AM 44.3000 -88.0667 190° South 270 311 10,700  Level KMKE
Sun 07:01:00 AM 44.2271 -88.1660 176° South  Level FlightAware
Sun 07:01:58 AM 44.2000 -88.0667 180° South 339 390 11,700  Level KMKE
Sun 07:02:00 AM 44.1463 -88.1580 176° South  Level FlightAware
Sun 07:02:52 AM 44.1167 -88.0667 180° South 354 407 12,800  Level KMKE
Sun 07:03:00 AM 44.0870 -88.1520 176° South  Level FlightAware
Sun 07:03:48 AM 44.0214 -88.0783 185° South 366 421 13,100  Level Minneapolis Center
Sun 07:04:48 AM 43.9153 -88.0867 183° South 378 435 13,000 -50 Descending Minneapolis Center
Sun 07:05:48 AM 43.8094 -88.0944 183° South 378 435 13,000  Level Minneapolis Center
Sun 07:06:48 AM 43.7031 -88.1033 183° South 380 437 13,000  Level Minneapolis Center
Sun 07:07:48 AM 43.5964 -88.1122 183° South 382 440 13,000  Level Chicago Center
Sun 07:08:49 AM 43.5067 -88.1178 183° South 383 441 13,000  Level Chicago Center
Sun 07:09:49 AM 43.4000 -88.1297 185° South 381 438 13,000  Level Chicago Center
Sun 07:10:50 AM 43.2953 -88.1603 192° South 380 437 13,000  Level Chicago Center
Sun 07:11:51 AM 43.1922 -88.1911 192° South 377 434 13,000 -397 Level Chicago Center
Sun 07:12:51 AM 43.0875 -88.2108 188° South 378 435 12,200 -1,140 Descending Chicago Center
Sun 07:13:52 AM 42.9889 -88.2169 183° South 357 411 10,700 -1,091 Descending Chicago Center
Sun 07:14:52 AM 42.8875 -88.2219 182° South 361 415 10,000 -347 Descending Chicago Center
Sun 07:15:53 AM 42.7886 -88.2272 182° South 357 411 10,000 -496 Level Chicago Center
Sun 07:16:53 AM 42.6931 -88.2331 183° South 292 336 9,000 -992 Descending Chicago Center
Sun 07:17:54 AM 42.6156 -88.2361 182° South 279 321 8,000 -492 Descending Chicago Center
Sun 07:18:55 AM 42.5389 -88.2408 183° South 276 318 8,000 -50 Level Chicago Center
Sun 07:19:55 AM 42.4611 -88.2575 189° South 281 323 7,900 -496 Descending Chicago Center
Sun 07:20:56 AM 42.3883 -88.2781 192° South 270 311 7,000 -492 Descending Chicago Center
Sun 07:21:57 AM 42.3211 -88.2847 184° South 260 299 6,900 -541 Descending Chicago Center
Sun 07:22:58 AM 42.2528 -88.2625 166° South 253 291 5,900 -992 Descending Chicago Center
Sun 07:23:58 AM 42.1803 -88.2503 173° South 260 299 4,900 -893 Descending Chicago Center
Sun 07:24:59 AM 42.1108 -88.2306 168° South 258 297 4,100 -738 Descending Chicago Center
Sun 07:26:00 AM 42.0472 -88.1925 156° South 251 289 3,400 -793 Descending Chicago Center
Sun 07:27:00 AM 41.9892 -88.1467 150° Southeast 246 283 2,500 -408 Descending Chicago Center
Sun 07:27:43 AM 41.9667 -88.0833 116° Southeast 210 242 2,700 -291 Climbing Chicago TRACON
Sun 07:28:43 AM 41.9667 -88.0167 90° East 164 189 2,000 -700 Descending Chicago TRACON

Login

Don't have an account? Register now (free) for customized features, flight alerts, and more!